Time;durP1;ratioP1;P1;durP2;ratioP2;P2;SDS_P1;SDS_P2;PMS_P1;PMS_P2;Temp;Humidity;BMP_temperature;BMP_pressure;BME280_temperature;BME280_humidity;BME280_pressure;Samples;Min_cycle;Max_cycle;Signal;HPM_P1;HPM_P2
2022/11/20 00:00:55;;;;;;;17.50;10.93;;;5.00;70.90;;;7.98;52.16;101234.25;5074817;28;20195;-61
2022/11/20 00:03:24;;;;;;;13.40;10.17;;;4.90;71.80;;;7.96;52.25;101228.28;5074658;28;20221;-59
2022/11/20 00:05:50;;;;;;;13.23;10.43;;;4.90;72.40;;;7.99;52.72;101237.66;5075433;28;20202;-57
2022/11/20 00:08:17;;;;;;;11.40;9.97;;;4.90;72.90;;;8.01;52.61;101231.31;5062329;28;20207;-60
2022/11/20 00:10:44;;;;;;;14.47;10.50;;;4.90;73.00;;;8.00;52.48;101227.06;5054460;28;20229;-59
2022/11/20 00:13:11;;;;;;;13.23;10.60;;;4.90;72.70;;;8.02;52.82;101219.88;5055579;28;20200;-57
2022/11/20 00:15:38;;;;;;;13.63;10.67;;;4.90;72.70;;;8.03;52.94;101229.34;5084919;28;20244;-58
2022/11/20 00:18:05;;;;;;;12.80;10.50;;;4.90;72.80;;;8.04;52.84;101233.66;5095915;28;20560;-56
2022/11/20 00:20:33;;;;;;;13.63;10.43;;;4.90;72.50;;;8.04;53.07;101219.72;5077290;28;20276;-58
2022/11/20 00:23:00;;;;;;;15.00;10.90;;;4.90;72.70;;;8.07;52.76;101215.00;5075420;28;20773;-58
2022/11/20 00:25:27;;;;;;;10.57;9.07;;;4.90;72.80;;;8.10;52.67;101219.97;5071547;28;20257;-58
2022/11/20 00:27:54;;;;;;;15.10;10.30;;;4.90;72.70;;;8.10;52.71;101214.72;5058056;28;20289;-60
2022/11/20 00:30:21;;;;;;;14.00;10.30;;;5.00;72.50;;;8.09;52.64;101222.72;5058160;28;20639;-59
2022/11/20 00:32:48;;;;;;;14.63;10.27;;;5.00;72.40;;;8.08;52.62;101219.25;5055742;28;20211;-56
2022/11/20 00:35:15;;;;;;;12.20;10.00;;;5.00;72.40;;;8.08;52.61;101224.50;5055157;28;20217;-57
2022/11/20 00:37:44;;;;;;;13.50;10.03;;;5.00;72.40;;;8.07;53.06;101217.63;5055322;28;20225;-58
2022/11/20 00:40:13;;;;;;;11.40;9.60;;;4.90;72.60;;;8.08;52.67;101221.09;5055161;28;20331;-58
2022/11/20 00:42:40;;;;;;;14.77;10.87;;;4.90;72.50;;;8.06;52.90;101218.59;5054201;28;20315;-59
2022/11/20 00:45:07;;;;;;;11.97;9.70;;;4.90;72.60;;;8.06;52.77;101217.75;5054630;28;20249;-58
2022/11/20 00:47:34;;;;;;;12.20;10.57;;;4.90;72.80;;;8.04;52.78;101215.28;5062817;28;20199;-58
2022/11/20 00:50:02;;;;;;;14.40;9.80;;;4.90;72.90;;;8.03;53.30;101231.97;5075176;28;20189;-57
2022/11/20 00:52:29;;;;;;;16.37;10.47;;;4.90;73.40;;;8.03;53.99;101218.88;5074577;28;20272;-57
2022/11/20 00:54:57;;;;;;;13.10;10.40;;;4.90;74.50;;;8.08;54.20;101210.59;5072043;28;20223;-57
2022/11/20 00:57:24;;;;;;;11.37;10.00;;;4.90;74.40;;;8.09;54.04;101215.69;5076587;28;20198;-60
2022/11/20 00:59:51;;;;;;;11.90;9.73;;;4.90;74.40;;;8.14;54.45;101210.84;5099916;28;20251;-58
2022/11/20 01:02:18;;;;;;;14.27;10.30;;;5.00;75.00;;;8.23;54.62;101205.66;5094666;28;20701;-60
2022/11/20 01:04:45;;;;;;;10.10;8.97;;;5.10;75.20;;;8.28;54.07;101206.06;5095245;28;20604;-58
2022/11/20 01:07:12;;;;;;;15.40;10.37;;;5.10;74.40;;;8.30;53.96;101204.13;5094903;28;20189;-58
2022/11/20 01:09:39;;;;;;;11.00;9.50;;;5.20;74.10;;;8.29;53.55;101202.50;5083118;28;20195;-58
2022/11/20 01:12:07;;;;;;;10.83;9.57;;;5.20;73.60;;;8.25;53.25;101201.13;5053127;28;20336;-60
2022/11/20 01:14:34;;;;;;;12.93;10.13;;;5.20;73.40;;;8.22;53.52;101204.03;5064896;28;20694;-56
2022/11/20 01:17:01;;;;;;;12.37;9.83;;;5.20;73.40;;;8.17;53.37;101202.69;5077796;28;20201;-59
2022/11/20 01:19:28;;;;;;;13.93;10.13;;;5.10;73.10;;;8.14;53.42;101199.50;5065245;28;20197;-60
2022/11/20 01:21:55;;;;;;;14.00;10.50;;;5.10;73.30;;;8.11;53.39;101198.00;5053548;28;20281;-57
2022/11/20 01:24:22;;;;;;;13.83;10.63;;;5.00;73.30;;;8.10;53.33;101198.16;5057690;28;20204;-58
2022/11/20 01:26:51;;;;;;;12.90;9.93;;;5.00;74.20;;;8.06;53.61;101199.41;5065060;28;20251;-59
2022/11/20 01:29:23;;;;;;;13.37;10.20;;;4.90;73.80;;;8.06;53.86;101192.38;5054402;28;20195;-60
2022/11/20 01:31:52;;;;;;;11.97;9.17;;;4.90;73.90;;;8.06;53.97;101183.69;5053550;28;20775;-58
2022/11/20 01:34:22;;;;;;;13.40;10.30;;;4.90;73.60;;;8.03;53.82;101184.00;5054150;28;20196;-57
2022/11/20 01:36:49;;;;;;;14.30;11.03;;;4.90;73.60;;;8.04;54.02;101183.00;5054267;28;20648;-60
2022/11/20 01:39:19;;;;;;;11.97;10.10;;;4.90;74.00;;;8.04;54.04;101178.59;5053722;28;20203;-56
2022/11/20 01:44:54;;;;;;;14.03;10.70;;;4.90;73.70;;;8.06;54.05;101176.66;5054266;28;20226;-60
2022/11/20 01:47:30;;;;;;;13.27;10.53;;;5.00;73.90;;;8.12;53.65;101170.84;5060251;28;20199;-59
2022/11/20 01:50:05;;;;;;;13.13;9.83;;;5.00;73.30;;;8.11;53.67;101171.78;5074303;28;20254;-58
2022/11/20 01:52:39;;;;;;;14.13;10.27;;;5.00;73.10;;;8.12;53.41;101170.84;5073365;28;20208;-58
2022/11/20 01:55:12;;;;;;;14.87;10.73;;;5.00;73.00;;;8.11;53.44;101169.19;5054645;28;20194;-57
2022/11/20 01:57:41;;;;;;;12.40;10.30;;;5.00;72.50;;;8.11;53.05;101176.22;5079982;28;20523;-60
2022/11/20 02:00:13;;;;;;;15.07;10.33;;;5.00;72.50;;;8.08;52.87;101166.84;5093922;28;20194;-59
2022/11/20 02:02:45;;;;;;;14.00;10.97;;;5.00;72.30;;;8.06;52.82;101166.16;5093268;28;20255;-58
2022/11/20 02:05:22;;;;;;;12.70;9.83;;;4.90;72.20;;;8.02;52.91;101158.75;5093826;28;20264;-60
2022/11/20 02:07:50;;;;;;;13.27;11.07;;;4.90;72.20;;;8.00;53.08;101164.16;5083471;28;20199;-58
2022/11/20 02:10:18;;;;;;;14.53;10.60;;;4.90;72.40;;;7.99;53.25;101169.53;5052916;28;20207;-60
2022/11/20 02:15:33;;;;;;;15.00;11.57;;;4.90;72.60;;;7.96;53.26;101144.44;5086647;28;20189;-58
2022/11/20 02:18:00;;;;;;;12.83;11.00;;;4.80;72.80;;;7.96;52.97;101147.06;5093706;28;20735;-60
2022/11/20 02:20:27;;;;;;;13.73;10.50;;;4.80;72.50;;;7.94;53.02;101141.13;5076234;28;20191;-60
2022/11/20 02:23:03;;;;;;;13.57;10.40;;;4.80;72.30;;;7.93;53.05;101143.91;5071036;28;20226;-57
2022/11/20 02:25:34;;;;;;;11.70;9.30;;;4.90;72.60;;;7.92;52.99;101144.88;5073402;28;20248;-59
2022/11/20 02:28:03;;;;;;;11.90;9.67;;;4.80;72.30;;;7.90;52.97;101139.78;5072844;28;20612;-60
2022/11/20 02:30:30;;;;;;;13.47;10.40;;;4.80;72.10;;;7.90;52.92;101145.03;5073018;28;20191;-58
2022/11/20 02:32:58;;;;;;;10.60;9.50;;;4.80;73.00;;;7.90;53.06;101145.03;5076687;28;20216;-58
2022/11/20 02:35:44;;;;;;;11.23;9.93;;;4.80;72.20;;;7.86;53.09;101135.81;5077491;28;20534;-59
2022/11/20 02:38:12;;;;;;;14.10;9.70;;;4.80;72.20;;;7.84;52.64;101132.53;5061013;28;20575;-56
2022/11/20 02:40:41;;;;;;;12.77;9.87;;;4.80;72.00;;;7.80;52.55;101128.53;5056760;28;20194;-56
2022/11/20 02:43:09;;;;;;;15.03;10.20;;;4.80;71.90;;;7.78;52.99;101135.72;5057435;28;20197;-57
2022/11/20 02:45:36;;;;;;;13.67;9.83;;;4.80;72.00;;;7.72;53.00;101138.94;5057113;28;20329;-57
2022/11/20 02:48:05;;;;;;;14.70;10.40;;;4.70;71.80;;;7.69;52.79;101131.38;5068917;28;20206;-58
2022/11/20 02:50:32;;;;;;;14.13;10.20;;;4.70;72.00;;;7.68;53.31;101128.91;5075323;28;20258;-58
2022/11/20 02:52:59;;;;;;;15.63;10.17;;;4.70;72.30;;;7.71;53.03;101131.22;5057106;28;20223;-58
2022/11/20 02:55:26;;;;;;;12.43;10.53;;;4.70;72.50;;;7.74;53.32;101129.13;5056618;28;20277;-57
2022/11/20 02:57:54;;;;;;;17.27;10.10;;;4.70;72.60;;;7.78;53.15;101130.47;5086858;28;20202;-57
2022/11/20 03:00:22;;;;;;;15.00;11.10;;;4.70;72.70;;;7.84;53.07;101129.91;5096656;28;20208;-58
2022/11/20 03:02:49;;;;;;;15.17;10.70;;;4.70;72.90;;;7.90;53.35;101129.31;5097019;28;20205;-58
2022/11/20 03:05:16;;;;;;;13.93;10.70;;;4.70;72.70;;;7.93;53.05;101129.03;5086483;28;20215;-59
2022/11/20 03:07:44;;;;;;;14.27;11.00;;;4.80;72.70;;;7.94;52.87;101125.41;5058366;28;20539;-58
2022/11/20 03:10:11;;;;;;;12.23;10.13;;;4.80;72.50;;;7.98;53.15;101120.72;5076998;28;20187;-62
2022/11/20 03:12:38;;;;;;;14.00;10.10;;;4.80;72.50;;;7.99;52.89;101112.69;5075483;28;20267;-59
2022/11/20 03:15:08;;;;;;;15.27;10.33;;;4.80;72.30;;;8.03;53.02;101114.03;5086938;28;20259;-59
2022/11/20 03:17:35;;;;;;;13.20;9.80;;;4.90;72.50;;;8.05;52.40;101112.13;5096848;28;20633;-58
2022/11/20 03:20:04;;;;;;;12.53;10.10;;;4.90;72.30;;;8.10;52.94;101109.03;5081617;28;20205;-59
2022/11/20 03:22:31;;;;;;;14.47;9.70;;;4.90;72.90;;;8.16;53.26;101111.06;5076851;28;20219;-58
2022/11/20 03:24:58;;;;;;;12.50;9.90;;;5.00;72.90;;;8.25;52.99;101104.91;5076320;28;20205;-61
2022/11/20 03:27:25;;;;;;;12.57;9.33;;;5.10;73.30;;;8.35;52.83;101102.25;5075324;28;20210;-59
2022/11/20 03:29:51;;;;;;;12.23;9.03;;;5.20;72.40;;;8.42;52.80;101092.78;5076538;28;20197;-58
2022/11/20 03:32:20;;;;;;;12.97;8.77;;;5.30;72.10;;;8.47;52.31;101087.91;5075741;28;20222;-57
2022/11/20 03:34:47;;;;;;;13.13;9.33;;;5.30;71.20;;;8.48;52.33;101098.28;5063400;28;20220;-57
2022/11/20 03:37:14;;;;;;;10.23;7.70;;;5.30;71.00;;;8.47;52.03;101091.38;5056156;28;20188;-60
2022/11/20 03:39:41;;;;;;;11.37;8.47;;;5.40;70.80;;;8.48;52.04;101092.19;5056153;28;20187;-59
2022/11/20 03:42:44;;;;;;;12.10;8.30;;;5.40;70.90;;;8.48;51.83;101094.81;5055947;28;20684;-58
2022/11/20 03:44:55;;;;;;;10.20;7.93;;;5.40;70.40;;;8.46;51.87;101094.94;5055529;28;20682;-59
2022/11/20 03:47:24;;;;;;;11.33;8.70;;;5.40;70.50;;;8.44;51.80;101080.38;5062602;28;20197;-59
2022/11/20 03:49:51;;;;;;;9.23;7.23;;;5.30;70.80;;;8.46;52.09;101078.41;5057486;28;20241;-60
2022/11/20 03:52:18;;;;;;;12.43;8.77;;;5.40;71.30;;;8.51;52.45;101073.53;5054955;28;21974;-57
2022/11/20 03:54:45;;;;;;;9.13;7.77;;;5.40;70.70;;;8.55;51.81;101078.31;5055355;28;20514;-59
2022/11/20 03:57:12;;;;;;;8.50;7.03;;;5.40;70.30;;;8.54;51.31;101070.59;5074752;28;20244;-58
2022/11/20 03:59:39;;;;;;;11.90;7.87;;;5.40;69.90;;;8.55;51.58;101069.63;5095817;28;20194;-59
2022/11/20 04:02:06;;;;;;;11.53;7.90;;;5.40;70.20;;;8.57;51.62;101072.91;5092998;28;20207;-59
2022/11/20 04:04:35;;;;;;;11.47;8.23;;;5.40;70.00;;;8.58;51.45;101066.69;5061813;28;20274;-58
2022/11/20 04:07:02;;;;;;;10.63;7.03;;;5.50;69.70;;;8.58;51.18;101064.88;5075655;28;20198;-59
2022/11/20 04:09:29;;;;;;;9.83;8.13;;;5.50;70.10;;;8.61;51.39;101067.19;5075600;28;20244;-59
2022/11/20 04:11:56;;;;;;;8.07;6.67;;;5.50;70.30;;;8.68;51.52;101072.66;5075153;28;20210;-59
2022/11/20 04:14:23;;;;;;;10.07;7.27;;;5.60;70.40;;;8.73;51.68;101075.63;5079876;28;20189;-60
2022/11/20 04:16:50;;;;;;;10.10;6.50;;;5.60;69.80;;;8.74;50.91;101074.69;5090488;28;20542;-58
2022/11/20 04:19:17;;;;;;;9.60;7.33;;;5.60;69.50;;;8.75;51.08;101065.81;5068165;28;20200;-60
2022/11/20 04:21:46;;;;;;;8.40;7.27;;;5.60;69.60;;;8.74;51.04;101061.56;5055530;28;20267;-60
2022/11/20 04:24:14;;;;;;;9.93;6.60;;;5.60;69.30;;;8.75;50.99;101060.56;5053764;28;20206;-60
2022/11/20 04:26:41;;;;;;;7.50;6.33;;;5.60;69.00;;;8.71;50.65;101057.44;5054270;28;20202;-58
2022/11/20 04:29:10;;;;;;;8.60;6.97;;;5.60;68.80;;;8.67;50.46;101060.53;5055300;28;20726;-58
2022/11/20 04:31:37;;;;;;;9.73;7.07;;;5.60;68.70;;;8.63;50.83;101061.78;5059702;28;20230;-58
2022/11/20 04:34:06;;;;;;;9.37;7.57;;;5.50;69.10;;;8.63;51.15;101049.50;5069881;28;20199;-59
2022/11/20 04:36:34;;;;;;;8.30;6.83;;;5.50;70.00;;;8.67;50.96;101055.28;5069414;28;20203;-58
2022/11/20 04:39:05;;;;;;;7.57;5.97;;;5.60;69.70;;;8.66;51.13;101051.00;5075225;28;20684;-57
2022/11/20 04:41:35;;;;;;;8.30;6.83;;;5.60;68.90;;;8.62;51.00;101065.41;5074753;28;20699;-60
2022/11/20 04:44:05;;;;;;;9.00;6.77;;;5.60;68.50;;;8.57;50.45;101071.13;5075381;28;20194;-60
2022/11/20 04:46:35;;;;;;;8.17;6.77;;;5.60;68.40;;;8.53;50.71;101063.72;5061671;28;20202;-59
2022/11/20 04:49:03;;;;;;;9.10;6.90;;;5.50;68.80;;;8.51;51.15;101055.19;5055757;28;20265;-59
2022/11/20 04:51:31;;;;;;;8.13;6.67;;;5.40;68.90;;;8.49;50.71;101049.22;5053647;28;20204;-58
2022/11/20 04:53:58;;;;;;;9.50;6.40;;;5.40;68.70;;;8.46;50.81;101057.44;5054194;28;20202;-58
2022/11/20 04:56:26;;;;;;;7.67;5.77;;;5.40;68.70;;;8.41;50.45;101050.03;5059205;28;20192;-57
2022/11/20 04:58:53;;;;;;;8.93;6.07;;;5.40;68.60;;;8.37;50.50;101055.72;5095147;28;20665;-59
2022/11/20 05:01:23;;;;;;;8.77;5.90;;;5.30;68.60;;;8.33;50.59;101051.75;5072495;28;20612;-60
2022/11/20 05:03:51;;;;;;;7.67;6.07;;;5.30;68.70;;;8.31;50.90;101045.84;5075465;28;20193;-57
2022/11/20 05:06:21;;;;;;;8.27;6.00;;;5.20;69.10;;;8.29;50.80;101050.41;5074961;28;20555;-57
2022/11/20 05:08:48;;;;;;;7.80;6.27;;;5.20;69.30;;;8.31;50.89;101053.69;5074822;28;20193;-59
2022/11/20 05:11:19;;;;;;;6.80;5.70;;;5.20;69.40;;;8.30;51.26;101047.63;5073429;28;20209;-59
2022/11/20 05:13:48;;;;;;;6.00;5.13;;;5.20;69.90;;;8.31;50.82;101049.28;5073580;28;20188;-60
2022/11/20 05:16:18;;;;;;;7.97;6.27;;;5.20;69.50;;;8.32;51.33;101057.97;5093464;28;20674;-59
2022/11/20 05:18:47;;;;;;;7.07;5.43;;;5.20;70.00;;;8.37;51.39;101048.66;5091679;28;20201;-56
2022/11/20 05:21:15;;;;;;;7.40;6.23;;;5.20;69.90;;;8.44;51.23;101049.69;5073528;28;20213;-59
2022/11/20 05:23:43;;;;;;;8.07;6.03;;;5.30;69.80;;;8.50;51.10;101040.41;5074186;28;20698;-57
2022/11/20 05:26:14;;;;;;;6.53;5.80;;;5.40;69.90;;;8.55;51.13;101043.41;5073496;28;20228;-56
2022/11/20 05:28:42;;;;;;;9.87;5.73;;;5.40;69.00;;;8.55;50.67;101040.78;5067884;28;20199;-57
2022/11/20 05:31:13;;;;;;;5.93;5.10;;;5.40;68.80;;;8.56;50.99;101042.41;5054472;28;20339;-59
2022/11/20 05:33:41;;;;;;;7.50;5.93;;;5.40;68.70;;;8.55;50.10;101036.34;5055768;28;20204;-58
2022/11/20 05:36:10;;;;;;;6.53;5.63;;;5.40;68.50;;;8.51;50.63;101039.44;5054451;28;20206;-59
2022/11/20 05:38:37;;;;;;;8.97;6.67;;;5.40;68.60;;;8.53;50.69;101047.97;5054043;28;20205;-57
2022/11/20 05:41:06;;;;;;;6.50;5.63;;;5.40;68.90;;;8.49;50.78;101036.13;5053306;28;20212;-58
2022/11/20 05:43:34;;;;;;;7.07;5.70;;;5.40;68.70;;;8.45;50.45;101040.03;5053348;28;20256;-59
2022/11/20 05:46:02;;;;;;;7.20;6.13;;;5.40;68.80;;;8.43;50.63;101039.38;5053910;28;20250;-59
2022/11/20 05:48:31;;;;;;;6.83;5.73;;;5.30;68.90;;;8.37;50.61;101032.94;5084745;28;20631;-61
2022/11/20 05:50:59;;;;;;;6.30;5.40;;;5.30;69.20;;;8.34;50.27;101032.44;5073815;28;20195;-59
2022/11/20 05:53:26;;;;;;;8.10;6.10;;;5.30;69.20;;;8.31;50.80;101038.78;5074062;28;20195;-58
2022/11/20 05:55:58;;;;;;;10.43;6.23;;;5.20;69.40;;;8.29;50.84;101039.94;5073656;28;20189;-59
2022/11/20 05:58:25;;;;;;;6.63;5.93;;;5.20;69.60;;;8.26;51.19;101034.94;5074300;28;20199;-58
2022/11/20 06:00:52;;;;;;;8.00;6.00;;;5.10;69.90;;;8.23;51.19;101024.75;5073178;28;20534;-58
2022/11/20 06:03:20;;;;;;;9.40;5.97;;;5.10;69.80;;;8.24;51.65;101026.41;5073476;28;20210;-57
2022/11/20 06:05:48;;;;;;;10.00;6.27;;;5.10;70.30;;;8.26;51.37;101024.47;5072647;28;20221;-58
2022/11/20 06:08:16;;;;;;;6.53;5.57;;;5.10;70.10;;;8.29;51.62;101029.44;5073472;28;20222;-60
2022/11/20 06:10:43;;;;;;;8.30;7.07;;;5.10;70.10;;;8.30;51.77;101025.81;5073579;28;20247;-61
2022/11/20 06:13:10;;;;;;;8.47;6.27;;;5.20;70.80;;;8.34;51.56;101017.53;5072408;28;20705;-61
2022/11/20 06:15:37;;;;;;;7.20;6.17;;;5.20;70.40;;;8.38;51.62;101018.03;5088494;28;20188;-59
2022/11/20 06:18:04;;;;;;;6.83;5.33;;;5.20;70.50;;;8.44;51.43;101012.19;5093917;28;20198;-59
2022/11/20 06:20:31;;;;;;;6.97;5.73;;;5.30;70.30;;;8.47;51.64;101007.44;5077121;28;20548;-57
2022/11/20 06:22:59;;;;;;;6.13;5.43;;;5.30;70.30;;;8.54;51.59;101003.22;5074124;28;20213;-57
2022/11/20 06:25:26;;;;;;;8.00;6.27;;;5.40;70.30;;;8.60;51.31;101007.03;5070485;28;20294;-56
2022/11/20 06:27:53;;;;;;;7.23;5.50;;;5.50;70.00;;;8.63;50.90;101004.91;5053745;28;20195;-57
2022/11/20 06:30:20;;;;;;;6.03;5.03;;;5.50;69.20;;;8.65;51.11;101002.94;5053829;28;20195;-59
2022/11/20 06:32:47;;;;;;;6.27;5.67;;;5.60;69.40;;;8.63;51.06;101007.53;5053464;28;20230;-57
2022/11/20 06:35:14;;;;;;;7.70;5.97;;;5.60;69.40;;;8.66;51.10;101016.88;5053537;28;20186;-56
2022/11/20 06:37:42;;;;;;;8.93;5.80;;;5.60;69.40;;;8.70;50.88;101005.13;5053734;28;20201;-58
2022/11/20 06:40:12;;;;;;;7.40;5.87;;;5.70;69.50;;;8.74;51.26;101009.06;5053667;28;20190;-59
2022/11/20 06:42:39;;;;;;;8.33;6.13;;;5.70;69.10;;;8.75;50.87;101005.47;5053098;28;20219;-57
2022/11/20 06:45:08;;;;;;;7.47;5.77;;;5.70;68.50;;;8.72;50.43;101017.09;5053348;28;20308;-57
2022/11/20 06:47:35;;;;;;;7.23;5.90;;;5.70;68.30;;;8.67;50.33;101013.31;5061845;28;20220;-59
2022/11/20 06:50:02;;;;;;;6.63;5.93;;;5.60;68.30;;;8.62;50.55;101005.91;5073649;28;20265;-59
2022/11/20 06:52:29;;;;;;;8.60;6.10;;;5.50;68.40;;;8.58;50.33;100998.50;5073953;28;20225;-59
2022/11/20 06:54:56;;;;;;;6.63;5.67;;;5.50;68.50;;;8.55;50.60;101001.44;5065543;28;20199;-57
2022/11/20 06:57:24;;;;;;;8.40;5.97;;;5.50;68.90;;;8.52;50.63;100999.09;5075377;28;20259;-57
2022/11/20 06:59:51;;;;;;;6.73;4.97;;;5.40;68.70;;;8.49;51.03;100994.16;5093566;28;20185;-59
2022/11/20 07:02:18;;;;;;;7.40;5.50;;;5.40;69.60;;;8.53;51.01;100995.50;5093009;28;20213;-60
2022/11/20 07:04:45;;;;;;;6.80;5.87;;;5.40;69.30;;;8.47;50.78;100990.88;5093396;28;20191;-60
2022/11/20 07:07:12;;;;;;;8.03;5.47;;;5.40;68.90;;;8.40;50.77;100974.09;5093207;28;20196;-59
2022/11/20 07:09:39;;;;;;;8.37;6.00;;;5.40;68.90;;;8.11;51.17;100964.72;5068896;28;20245;-60
2022/11/20 07:12:06;;;;;;;7.27;5.53;;;5.30;68.50;;;8.04;51.26;100982.03;5052612;28;20275;-58
2022/11/20 07:14:35;;;;;;;7.70;6.03;;;5.30;68.60;;;8.01;51.10;100990.19;5065054;28;20251;-60
2022/11/20 07:17:02;;;;;;;6.80;5.70;;;5.20;68.70;;;7.98;51.28;100993.13;5095456;28;20192;-59
2022/11/20 07:19:29;;;;;;;8.33;6.67;;;5.10;68.90;;;7.98;51.33;100995.75;5089711;28;20300;-60
2022/11/20 07:21:57;;;;;;;10.13;6.27;;;5.10;69.40;;;8.00;51.62;100998.22;5077639;28;20249;-59
2022/11/20 07:24:24;;;;;;;6.87;5.53;;;5.00;69.80;;;8.03;51.84;101003.97;5078845;28;20250;-60
2022/11/20 07:26:51;;;;;;;7.83;5.97;;;5.00;70.20;;;8.06;52.08;100997.59;5081832;28;20276;-59
2022/11/20 07:29:18;;;;;;;8.20;6.00;;;5.00;71.40;;;8.12;52.18;101002.25;5077326;28;20202;-58
2022/11/20 07:31:47;;;;;;;8.73;6.40;;;5.10;70.70;;;8.15;51.71;101002.75;5077478;28;20245;-57
2022/11/20 07:34:14;;;;;;;7.90;6.30;;;5.10;70.50;;;8.17;51.54;101006.06;5077678;28;20199;-58
2022/11/20 07:36:41;;;;;;;7.63;6.37;;;5.10;70.40;;;8.18;51.59;100999.81;5077854;28;20206;-59
2022/11/20 07:39:08;;;;;;;8.03;5.53;;;5.20;70.00;;;8.14;51.78;101001.13;5076178;28;20252;-57
2022/11/20 07:41:35;;;;;;;9.33;5.90;;;5.20;69.80;;;8.13;51.58;100998.63;5077127;28;20277;-59
2022/11/20 07:44:04;;;;;;;7.63;5.83;;;5.20;69.90;;;8.12;51.61;100997.81;5076245;28;20193;-59
2022/11/20 07:46:38;;;;;;;8.80;6.80;;;5.20;69.80;;;8.10;51.66;100989.28;5094502;28;20224;-59
2022/11/20 07:49:06;;;;;;;7.90;6.90;;;5.20;69.70;;;8.13;52.02;100998.63;5075461;28;20190;-60
2022/11/20 07:51:33;;;;;;;8.53;6.10;;;5.20;70.20;;;8.19;51.65;100988.38;5077812;28;20222;-58
2022/11/20 07:54:00;;;;;;;9.67;6.40;;;5.20;70.00;;;8.27;51.62;100994.69;5073320;28;20218;-59
2022/11/20 07:56:27;;;;;;;9.07;6.57;;;5.20;69.90;;;8.35;51.47;100997.34;5061186;28;20190;-59
2022/11/20 07:58:54;;;;;;;11.07;7.33;;;5.30;69.60;;;8.34;51.01;100995.72;5096266;28;20194;-57
2022/11/20 08:01:21;;;;;;;10.17;7.13;;;5.30;69.20;;;8.37;50.81;100996.22;5094374;28;20208;-59
2022/11/20 08:03:48;;;;;;;10.10;7.20;;;5.30;69.60;;;8.38;50.90;100994.41;5095401;28;20774;-64
2022/11/20 08:06:18;;;;;;;9.43;7.10;;;5.30;68.80;;;8.36;50.77;100994.59;5083633;28;20605;-58
2022/11/20 08:08:45;;;;;;;9.33;6.50;;;5.30;68.50;;;8.35;50.75;100997.34;5055507;28;20212;-57
2022/11/20 08:14:13;;;;;;;10.57;7.60;;;5.30;68.90;;;8.34;50.80;101011.44;5056685;28;20317;-56
2022/11/20 08:16:41;;;;;;;9.97;7.37;;;5.20;68.90;;;8.38;50.77;101015.41;5078937;28;20183;-59
2022/11/20 08:19:09;;;;;;;11.67;7.23;;;5.30;68.90;;;8.40;50.70;101013.44;5083672;28;20197;-60
2022/11/20 08:21:37;;;;;;;8.97;7.13;;;5.30;68.70;;;8.42;50.56;101008.88;5071133;28;20278;-58
2022/11/20 08:24:06;;;;;;;10.93;7.50;;;5.30;68.90;;;8.46;50.77;101002.34;5057185;28;20197;-59
2022/11/20 08:26:34;;;;;;;9.20;7.43;;;5.30;69.20;;;8.53;50.27;101003.38;5055694;28;20568;-59
2022/11/20 08:29:01;;;;;;;10.33;7.13;;;5.30;68.40;;;8.55;50.14;100999.63;5081494;28;20213;-59
2022/11/20 08:31:28;;;;;;;9.27;7.47;;;5.30;68.40;;;8.63;50.24;101004.06;5069108;28;20291;-61
2022/11/20 08:33:56;;;;;;;11.20;7.70;;;5.40;68.50;;;8.68;50.04;101007.06;5055517;28;20194;-58
2022/11/20 08:36:24;;;;;;;9.87;7.80;;;5.40;68.20;;;8.72;49.89;101011.03;5070073;28;20595;-58
2022/11/20 08:38:55;;;;;;;9.07;7.47;;;5.50;67.70;;;8.72;49.80;101016.28;5074425;28;20571;-58
2022/11/20 08:41:26;;;;;;;10.60;7.73;;;5.50;67.50;;;8.71;49.48;101012.00;5073508;28;20622;-60
2022/11/20 08:43:56;;;;;;;9.63;7.10;;;5.50;67.40;;;8.76;49.45;101012.38;5075111;28;20201;-60
2022/11/20 08:46:25;;;;;;;10.93;7.90;;;5.50;68.00;;;8.84;49.74;101007.16;5073770;28;20218;-60
2022/11/20 08:48:53;;;;;;;9.97;8.00;;;5.60;67.80;;;8.89;49.45;101012.75;5074888;28;20210;-58
2022/11/20 08:51:20;;;;;;;10.77;8.33;;;5.60;67.40;;;8.94;49.23;101014.94;5079486;28;20216;-59
2022/11/20 08:53:48;;;;;;;10.13;7.20;;;5.60;67.40;;;8.96;48.83;101008.53;5085687;28;20202;-63
2022/11/20 08:56:17;;;;;;;9.27;7.43;;;5.70;67.50;;;8.98;49.29;101011.00;5070478;28;20203;-57
2022/11/20 08:58:45;;;;;;;9.43;7.50;;;5.70;67.20;;;8.99;49.13;101013.47;5092407;28;20192;-60
2022/11/20 09:01:32;;;;;;;10.00;7.63;;;5.70;66.70;;;8.98;49.11;101016.25;5094091;28;20269;-60
2022/11/20 09:03:59;;;;;;;9.00;7.33;;;5.70;66.70;;;8.95;48.89;101006.88;5080133;28;20671;-59
2022/11/20 09:06:26;;;;;;;14.60;8.97;;;5.70;67.20;;;8.93;48.93;101008.84;5073786;28;20214;-59
2022/11/20 09:08:54;;;;;;;9.10;7.30;;;5.70;66.40;;;8.92;48.93;101009.81;5060746;28;20190;-60
2022/11/20 09:11:22;;;;;;;10.23;8.70;;;5.70;66.60;;;8.89;48.65;101018.00;5085828;28;20208;-58
2022/11/20 09:13:50;;;;;;;10.03;7.77;;;5.60;66.70;;;8.86;49.03;101023.56;5083679;28;20227;-61
2022/11/20 09:16:19;;;;;;;10.37;7.47;;;5.60;66.80;;;8.84;48.92;101023.72;5079264;28;20193;-58
2022/11/20 09:18:46;;;;;;;8.37;6.87;;;5.60;67.20;;;8.88;49.37;101016.38;5082244;28;20684;-57
2022/11/20 09:21:13;;;;;;;8.23;7.40;;;5.60;67.70;;;8.93;49.21;101014.09;5087207;28;20681;-58
2022/11/20 09:23:41;;;;;;;9.57;7.20;;;5.60;67.40;;;8.96;49.35;101019.03;5084001;28;20607;-59
2022/11/20 09:26:11;;;;;;;8.97;7.77;;;5.70;67.50;;;8.99;48.86;101017.88;5080013;28;20222;-59
2022/11/20 09:28:40;;;;;;;10.10;7.77;;;5.70;67.20;;;9.01;49.25;101016.75;5091066;28;20196;-59
2022/11/20 09:31:24;;;;;;;11.07;8.13;;;5.80;68.00;;;9.00;48.62;101020.38;5079015;28;20666;-59
2022/11/20 09:33:52;;;;;;;9.90;7.70;;;5.80;67.10;;;9.01;48.89;101016.75;5074790;28;21351;-60
2022/11/20 09:36:19;;;;;;;10.93;8.33;;;5.80;67.10;;;8.98;48.72;101017.06;5074704;28;20580;-60
2022/11/20 09:38:47;;;;;;;10.13;7.97;;;5.70;67.00;;;8.95;49.11;101006.06;5093122;28;20200;-59
2022/11/20 09:41:53;;;;;;;11.43;7.80;;;5.70;67.30;;;8.85;49.11;101011.41;5086418;28;20233;-59
2022/11/20 09:44:48;;;;;;;8.47;7.43;;;5.70;67.40;;;8.81;49.58;101015.34;5084353;28;20275;-60
2022/11/20 09:47:31;;;;;;;8.70;7.33;;;5.70;67.90;;;8.86;49.35;101007.84;5064433;28;20216;-59
2022/11/20 09:50:19;;;;;;;9.73;8.40;;;5.70;68.20;;;8.90;49.47;101003.91;5081091;28;20192;-61
2022/11/20 09:53:10;;;;;;;9.83;8.23;;;5.80;67.70;;;8.89;49.46;101004.88;5077947;28;20270;-60
2022/11/20 09:55:39;;;;;;;9.73;7.17;;;5.80;67.50;;;8.87;49.25;101001.59;5085368;28;20177;-60
2022/11/20 09:58:15;;;;;;;10.33;8.07;;;5.80;67.50;;;8.80;49.21;101009.28;5077965;28;20200;-61
2022/11/20 10:00:47;;;;;;;8.97;7.27;;;5.70;67.30;;;8.75;49.52;101005.47;5072003;28;20197;-61
2022/11/20 10:03:23;;;;;;;9.70;8.70;;;5.70;67.70;;;8.75;50.11;100994.97;5064671;28;20233;-59
2022/11/20 10:05:54;;;;;;;10.23;8.87;;;5.70;68.20;;;8.77;50.15;100995.66;5053780;28;20203;-59
2022/11/20 10:08:29;;;;;;;9.40;8.30;;;5.70;68.60;;;8.78;50.07;100999.91;5053653;28;20189;-60
2022/11/20 10:11:08;;;;;;;9.07;7.33;;;5.60;68.70;;;8.75;49.93;101000.22;5051405;28;20551;-59
2022/11/20 10:13:51;;;;;;;9.67;7.57;;;5.60;68.90;;;8.73;50.07;100999.53;5069141;28;20211;-60
2022/11/20 10:16:39;;;;;;;11.70;8.73;;;5.60;68.70;;;8.68;50.29;101002.66;5080947;28;20681;-58
2022/11/20 10:19:34;;;;;;;10.27;8.40;;;5.60;69.00;;;8.65;50.70;100999.53;5058079;28;20258;-56
2022/11/20 10:22:19;;;;;;;9.77;8.40;;;5.60;69.80;;;8.65;50.95;100991.66;5072626;28;20288;-59
2022/11/20 10:24:56;;;;;;;9.87;7.83;;;5.50;70.10;;;8.70;51.24;100992.81;5072344;28;20196;-59
2022/11/20 10:28:06;;;;;;;10.53;8.07;;;5.60;71.00;;;8.77;51.61;100995.66;5054948;28;20602;-61
2022/11/20 10:30:38;;;;;;;8.50;7.60;;;5.60;70.90;;;8.83;51.19;100992.38;5074520;28;20195;-60
2022/11/20 10:33:17;;;;;;;10.13;8.20;;;5.70;70.20;;;8.83;51.02;100989.75;5057939;28;20222;-58
2022/11/20 10:35:52;;;;;;;10.00;8.80;;;5.70;70.20;;;8.82;51.01;100985.47;5077536;28;20224;-60
2022/11/20 10:38:27;;;;;;;11.57;8.70;;;5.70;70.20;;;8.77;50.90;100982.53;5087031;28;20243;-58